»·PEaware :: UAL569 KPDX-KSFO

UAL569 :: KPDX-KSFO

FLIGHT INFORMATION

Flight Status: Arrived
Operator:
United Airlines
More flights by this operator :: More flights under this callsign
Pilot: John C. (18682)
Aircraft: BOEING 737-800
(B738)
More flights by this aircraft type
Origin: KPDX Portland Intl
United States
Destination: KSFO San Francisco Intl
United States
More flights between these airports :: More routes between these airports
Route: MINNE5 EASON Q1 ENVIE MLBEC BDEGA3
File this flight plan on PilotEdge
Remarks:
Altitude:
(Current/Filed)
35,000ft
Speed:
(Current/Filed)
457kts
Departed: 22-Sep-18 01:02 PM
Arrived: 22-Sep-18 02:38 PM
Distance/Time
Traveled:
478nm/1:35
Distance/Time
To Go:
Arrived

Flight Plot

Page will automatically refresh every two minutes.

Flight plan parsing failed; only flown route is shown


Map Options




Map Legend


Flown Route
Filed Route
Departure Airport
Arrival Airport
Navaid (VOR, NDB)
Fix

Horizontal Profiles

Position Reports

Time Latitude Longitude Heading Altitude Ground
Speed
22-Sep-18 12:35 45.591585 -122.595193 196 37ft 0kts
22-Sep-18 12:36 45.591585 -122.595193 196 37ft 0kts
22-Sep-18 12:37 45.591585 -122.595193 196 37ft 0kts
22-Sep-18 12:38 45.591585 -122.595193 196 37ft 0kts
22-Sep-18 12:39 45.591585 -122.595193 196 37ft 0kts
22-Sep-18 12:40 45.591585 -122.595193 196 37ft 0kts
22-Sep-18 12:41 45.591585 -122.595193 196 37ft 0kts
22-Sep-18 12:42 45.591585 -122.595193 196 37ft 0kts
22-Sep-18 12:43 45.591585 -122.595193 196 37ft 0kts
22-Sep-18 12:44 45.591585 -122.595193 196 37ft 0kts
22-Sep-18 12:45 45.591585 -122.595193 196 37ft 0kts
22-Sep-18 12:46 45.591585 -122.595193 196 37ft 0kts
22-Sep-18 12:47 45.591585 -122.595193 196 37ft 0kts
22-Sep-18 12:48 45.591585 -122.595193 196 37ft 0kts
22-Sep-18 12:49 45.591585 -122.595193 196 37ft 0kts
22-Sep-18 12:50 45.591585 -122.595193 196 37ft 0kts
22-Sep-18 12:51 45.591585 -122.595193 196 37ft 0kts
22-Sep-18 12:52 45.591586 -122.595193 196 37ft 0kts
22-Sep-18 12:53 45.591586 -122.595193 196 37ft 0kts
22-Sep-18 12:54 45.592136 -122.594974 195 37ft 2kts
22-Sep-18 12:55 45.592524 -122.595126 118 37ft 1kts
22-Sep-18 12:56 45.592526 -122.595131 118 37ft 0kts
22-Sep-18 12:57 45.592526 -122.595131 118 37ft 0kts
22-Sep-18 12:58 45.591345 -122.592132 119 37ft 17kts
22-Sep-18 12:59 45.589579 -122.586218 84 37ft 13kts
22-Sep-18 13:00 45.587774 -122.580818 119 37ft 18kts
22-Sep-18 13:01 45.584912 -122.573473 119 37ft 25kts
22-Sep-18 13:02 45.582745 -122.567435 72 37ft 0kts
22-Sep-18 13:03 45.583748 -122.567270 302 36ft 8kts
22-Sep-18 13:04 45.597918 -122.602845 299 558ft 168kts
22-Sep-18 13:05 45.615607 -122.670165 281 2144ft 214kts
22-Sep-18 13:06 45.649070 -122.755313 298 4221ft 265kts
22-Sep-18 13:07 45.667083 -122.850853 253 7079ft 261kts
22-Sep-18 13:08 45.625091 -122.921227 198 9569ft 272kts
22-Sep-18 13:09 45.546712 -122.932552 188 11350ft 309kts
22-Sep-18 13:10 45.462759 -122.941916 189 13797ft 320kts
22-Sep-18 13:11 45.375601 -122.951841 190 16494ft 328kts
22-Sep-18 13:12 45.284330 -122.962277 191 19033ft 337kts
22-Sep-18 13:13 45.192506 -122.982678 204 21387ft 335kts
22-Sep-18 13:14 45.103872 -123.027463 205 23496ft 344kts
22-Sep-18 13:15 45.012769 -123.073461 205 25439ft 351kts
22-Sep-18 13:16 44.921698 -123.119183 206 27399ft 352kts
22-Sep-18 13:17 44.831654 -123.164280 207 29017ft 358kts
22-Sep-18 13:18 44.740532 -123.209659 207 30955ft 351kts
22-Sep-18 13:19 44.651635 -123.253716 207 32844ft 340kts
22-Sep-18 13:20 44.564855 -123.296625 208 34412ft 332kts
22-Sep-18 13:21 44.475163 -123.329368 191 35151ft 365kts
22-Sep-18 13:22 44.369872 -123.325339 189 35123ft 394kts
22-Sep-18 13:23 44.261302 -123.320594 189 35119ft 395kts
22-Sep-18 13:24 44.151996 -123.316103 189 35129ft 396kts
22-Sep-18 13:25 44.042499 -123.311680 189 35121ft 395kts
22-Sep-18 13:26 43.933366 -123.307368 189 35125ft 396kts
22-Sep-18 13:27 43.827452 -123.303155 189 35129ft 395kts
22-Sep-18 13:28 43.719922 -123.298941 188 35137ft 396kts
22-Sep-18 13:29 43.629684 -123.295360 189 35128ft 395kts
22-Sep-18 13:30 43.503328 -123.290405 189 35135ft 395kts
22-Sep-18 13:31 43.412277 -123.286858 189 35135ft 395kts
22-Sep-18 13:32 43.284724 -123.281899 189 35133ft 395kts
22-Sep-18 13:33 43.193232 -123.278344 189 35123ft 395kts
22-Sep-18 13:34 43.065711 -123.273400 189 35121ft 395kts
22-Sep-18 13:35 42.974034 -123.269971 187 35128ft 404kts
22-Sep-18 13:36 42.864807 -123.265900 185 35138ft 419kts
22-Sep-18 13:37 42.750169 -123.261335 185 35128ft 417kts
22-Sep-18 13:38 42.635660 -123.256812 185 35117ft 417kts
22-Sep-18 13:39 42.520764 -123.252301 185 35107ft 417kts
22-Sep-18 13:40 42.405873 -123.247934 185 35107ft 417kts
22-Sep-18 13:41 42.290292 -123.243666 185 35105ft 417kts
22-Sep-18 13:42 42.174744 -123.239416 185 35104ft 417kts
22-Sep-18 13:43 42.059056 -123.235174 185 35103ft 417kts
22-Sep-18 13:44 41.948214 -123.231116 185 35101ft 417kts
22-Sep-18 13:45 41.835083 -123.226988 185 35104ft 417kts
22-Sep-18 13:46 41.720226 -123.222793 185 35101ft 417kts
22-Sep-18 13:47 41.605150 -123.218611 185 35108ft 418kts
22-Sep-18 13:48 41.490419 -123.214636 185 35103ft 417kts
22-Sep-18 13:49 41.374698 -123.210645 185 35098ft 418kts
22-Sep-18 13:50 41.258700 -123.202106 182 35096ft 421kts
22-Sep-18 13:51 41.142751 -123.189753 182 35095ft 420kts
22-Sep-18 13:52 41.026114 -123.177566 182 35059ft 423kts
22-Sep-18 13:53 40.908943 -123.165382 182 35017ft 425kts
22-Sep-18 13:54 40.794719 -123.153521 182 35017ft 425kts
22-Sep-18 13:55 40.677438 -123.141427 182 35011ft 425kts
22-Sep-18 13:56 40.559642 -123.129364 182 35004ft 425kts
22-Sep-18 13:57 40.442466 -123.117423 182 34998ft 425kts
22-Sep-18 13:58 40.324721 -123.105457 182 34997ft 425kts
22-Sep-18 13:59 40.210767 -123.093900 182 35002ft 425kts
22-Sep-18 14:00 40.093364 -123.082000 182 35010ft 425kts
22-Sep-18 14:01 39.976185 -123.070131 182 35019ft 425kts
22-Sep-18 14:02 39.860380 -123.058402 182 35024ft 425kts
22-Sep-18 14:03 39.742860 -123.046504 182 35026ft 424kts
22-Sep-18 14:04 39.625492 -123.034623 182 35027ft 424kts
22-Sep-18 14:05 39.513393 -123.023278 182 35025ft 424kts
22-Sep-18 14:06 39.396124 -123.011410 182 35026ft 424kts
22-Sep-18 14:07 39.278965 -122.999556 182 35025ft 424kts
22-Sep-18 14:08 39.164467 -122.987804 182 34221ft 394kts
22-Sep-18 14:09 39.054717 -122.976800 182 33228ft 405kts
22-Sep-18 14:10 38.942468 -122.965522 181 32215ft 409kts
22-Sep-18 14:11 38.832804 -122.947773 172 31269ft 419kts
22-Sep-18 14:12 38.720170 -122.914132 172 30287ft 414kts
22-Sep-18 14:13 38.609676 -122.881271 171 29298ft 406kts
22-Sep-18 14:14 38.500817 -122.849065 171 27028ft 396kts
22-Sep-18 14:15 38.396452 -122.818276 170 24912ft 379kts
22-Sep-18 14:16 38.296052 -122.788782 170 22899ft 365kts
22-Sep-18 14:17 38.197431 -122.759971 170 20897ft 361kts
22-Sep-18 14:18 38.101314 -122.732012 169 18962ft 352kts
22-Sep-18 14:19 38.007317 -122.704757 169 17079ft 344kts
22-Sep-18 14:20 37.915552 -122.678157 167 15249ft 336kts
22-Sep-18 14:21 37.840844 -122.613239 141 13484ft 333kts
22-Sep-18 14:22 37.772669 -122.540292 141 11901ft 313kts
22-Sep-18 14:23 37.709635 -122.473152 141 11016ft 294kts
22-Sep-18 14:24 37.647623 -122.407052 141 11009ft 293kts
22-Sep-18 14:25 37.583018 -122.348108 154 10691ft 287kts
22-Sep-18 14:26 37.515002 -122.303861 154 10002ft 268kts
22-Sep-18 14:27 37.451900 -122.262297 154 9217ft 244kts
22-Sep-18 14:28 37.393372 -122.223508 154 8434ft 241kts
22-Sep-18 14:29 37.349780 -122.163566 113 7630ft 246kts
22-Sep-18 14:30 37.355313 -122.084494 63 6714ft 234kts
22-Sep-18 14:31 37.399967 -122.040852 3 5998ft 196kts
22-Sep-18 14:32 37.452423 -122.044752 345 5438ft 187kts
22-Sep-18 14:33 37.493583 -122.081178 299 4647ft 180kts
22-Sep-18 14:34 37.517767 -122.135983 298 3920ft 178kts
22-Sep-18 14:35 37.540819 -122.190091 297 2984ft 172kts
22-Sep-18 14:36 37.562555 -122.241533 297 2084ft 159kts
22-Sep-18 14:37 37.582167 -122.287906 298 1234ft 140kts
22-Sep-18 14:38 37.599994 -122.330428 297 547ft 138kts
22-Sep-18 14:39 37.616585 -122.369916 298 11ft 76kts
22-Sep-18 14:40 37.618956 -122.377991 268 27ft 11kts
22-Sep-18 14:41 37.619592 -122.382298 251 31ft 12kts
22-Sep-18 14:42 37.618042 -122.384065 282 30ft 0kts
22-Sep-18 14:43 37.618041 -122.384056 280 30ft 0kts
22-Sep-18 14:44 37.618041 -122.384056 280 30ft 0kts

Navigation Log

Ident Type
Flight plan parsing failed, navigation log unavailable